sensor_id;sensor_type;location;lat;lon;timestamp;pressure;altitude;pressure_sealevel;temperature;humidity
41800;BME280;27468;47.460;19.034;2023-12-29T00:01:06;100809.22;;;0.84;100.00
41800;BME280;27468;47.460;19.034;2023-12-29T00:03:31;100860.22;;;1.17;100.00
41800;BME280;27468;47.460;19.034;2023-12-29T00:05:56;100764.66;;;0.68;100.00
41800;BME280;27468;47.460;19.034;2023-12-29T00:08:22;100775.94;;;0.70;100.00
41800;BME280;27468;47.460;19.034;2023-12-29T00:10:47;100832.69;;;0.89;100.00
41800;BME280;27468;47.460;19.034;2023-12-29T00:13:12;100804.63;;;0.74;100.00
41800;BME280;27468;47.460;19.034;2023-12-29T00:15:38;100810.63;;;0.73;100.00
41800;BME280;27468;47.460;19.034;2023-12-29T00:18:03;100824.78;;;0.84;100.00
41800;BME280;27468;47.460;19.034;2023-12-29T00:20:28;100750.56;;;0.58;100.00
41800;BME280;27468;47.460;19.034;2023-12-29T00:22:54;100863.97;;;1.28;100.00
41800;BME280;27468;47.460;19.034;2023-12-29T00:25:23;100802.44;;;0.89;100.00
41800;BME280;27468;47.460;19.034;2023-12-29T00:27:48;100764.94;;;0.78;100.00
41800;BME280;27468;47.460;19.034;2023-12-29T00:30:15;100802.75;;;1.02;100.00
41800;BME280;27468;47.460;19.034;2023-12-29T00:32:40;100737.81;;;0.67;100.00
41800;BME280;27468;47.460;19.034;2023-12-29T00:35:05;100774.97;;;0.99;100.00
41800;BME280;27468;47.460;19.034;2023-12-29T00:37:31;100785.41;;;1.01;100.00
41800;BME280;27468;47.460;19.034;2023-12-29T00:39:56;100809.41;;;1.26;100.00
41800;BME280;27468;47.460;19.034;2023-12-29T00:42:21;100759.44;;;1.01;100.00
41800;BME280;27468;47.460;19.034;2023-12-29T00:44:47;100779.66;;;1.12;100.00
41800;BME280;27468;47.460;19.034;2023-12-29T00:47:12;100765.59;;;1.04;100.00
41800;BME280;27468;47.460;19.034;2023-12-29T00:49:40;100790.25;;;1.23;100.00
41800;BME280;27468;47.460;19.034;2023-12-29T00:52:06;100781.44;;;1.16;100.00
41800;BME280;27468;47.460;19.034;2023-12-29T00:54:31;100852.72;;;1.62;100.00
41800;BME280;27468;47.460;19.034;2023-12-29T00:56:56;100808.94;;;1.43;100.00
41800;BME280;27468;47.460;19.034;2023-12-29T00:59:22;100858.78;;;1.62;100.00
41800;BME280;27468;47.460;19.034;2023-12-29T01:01:47;100761.53;;;1.15;100.00
41800;BME280;27468;47.460;19.034;2023-12-29T01:04:12;100821.22;;;1.50;100.00
41800;BME280;27468;47.460;19.034;2023-12-29T01:06:38;100747.50;;;1.07;100.00
41800;BME280;27468;47.460;19.034;2023-12-29T01:09:03;100703.56;;;0.80;100.00
41800;BME280;27468;47.460;19.034;2023-12-29T01:11:29;100769.34;;;1.17;100.00
41800;BME280;27468;47.460;19.034;2023-12-29T01:13:55;100831.72;;;1.54;100.00
41800;BME280;27468;47.460;19.034;2023-12-29T01:16:21;100825.56;;;1.49;100.00
41800;BME280;27468;47.460;19.034;2023-12-29T01:18:46;100823.56;;;1.39;100.00
41800;BME280;27468;47.460;19.034;2023-12-29T01:21:11;100801.56;;;1.25;100.00
41800;BME280;27468;47.460;19.034;2023-12-29T01:23:37;100805.88;;;1.24;100.00
41800;BME280;27468;47.460;19.034;2023-12-29T01:26:02;100819.25;;;1.40;100.00
41800;BME280;27468;47.460;19.034;2023-12-29T01:28:27;100749.13;;;1.04;100.00
41800;BME280;27468;47.460;19.034;2023-12-29T01:30:53;100797.31;;;1.28;100.00
41800;BME280;27468;47.460;19.034;2023-12-29T01:33:18;100811.31;;;1.33;100.00
41800;BME280;27468;47.460;19.034;2023-12-29T01:35:46;100752.66;;;1.06;100.00
41800;BME280;27468;47.460;19.034;2023-12-29T01:38:11;100757.88;;;1.07;100.00
41800;BME280;27468;47.460;19.034;2023-12-29T01:40:47;100812.41;;;1.43;100.00
41800;BME280;27468;47.460;19.034;2023-12-29T01:43:12;100816.06;;;1.51;100.00
41800;BME280;27468;47.460;19.034;2023-12-29T01:45:38;100833.63;;;1.61;100.00
41800;BME280;27468;47.460;19.034;2023-12-29T01:48:04;100798.41;;;1.37;100.00
41800;BME280;27468;47.460;19.034;2023-12-29T01:50:29;100829.25;;;1.59;100.00
41800;BME280;27468;47.460;19.034;2023-12-29T01:52:55;100790.53;;;1.33;100.00
41800;BME280;27468;47.460;19.034;2023-12-29T01:55:22;100800.19;;;1.39;100.00
41800;BME280;27468;47.460;19.034;2023-12-29T01:57:50;100825.56;;;1.49;100.00
41800;BME280;27468;47.460;19.034;2023-12-29T02:00:17;100768.59;;;1.22;100.00
41800;BME280;27468;47.460;19.034;2023-12-29T02:02:44;100780.06;;;1.30;100.00
41800;BME280;27468;47.460;19.034;2023-12-29T02:05:13;100803.91;;;1.50;100.00
41800;BME280;27468;47.460;19.034;2023-12-29T02:07:40;100790.00;;;1.48;100.00
41800;BME280;27468;47.460;19.034;2023-12-29T02:10:06;100718.13;;;1.10;100.00
41800;BME280;27468;47.460;19.034;2023-12-29T02:12:34;100775.75;;;1.31;100.00
41800;BME280;27468;47.460;19.034;2023-12-29T02:14:59;100789.00;;;1.42;100.00
41800;BME280;27468;47.460;19.034;2023-12-29T02:17:33;100817.31;;;1.67;100.00
41800;BME280;27468;47.460;19.034;2023-12-29T02:20:01;100822.63;;;1.72;100.00
41800;BME280;27468;47.460;19.034;2023-12-29T02:22:26;100803.22;;;1.57;100.00
41800;BME280;27468;47.460;19.034;2023-12-29T02:24:51;100749.03;;;1.37;100.00
41800;BME280;27468;47.460;19.034;2023-12-29T02:32:24;100777.84;;;1.46;100.00
41800;BME280;27468;47.460;19.034;2023-12-29T02:34:52;100732.41;;;1.28;100.00
41800;BME280;27468;47.460;19.034;2023-12-29T02:37:18;100787.75;;;1.62;100.00
41800;BME280;27468;47.460;19.034;2023-12-29T02:39:44;100769.19;;;1.47;100.00
41800;BME280;27468;47.460;19.034;2023-12-29T02:42:09;100799.06;;;1.64;100.00
41800;BME280;27468;47.460;19.034;2023-12-29T02:44:35;100700.88;;;1.12;100.00
41800;BME280;27468;47.460;19.034;2023-12-29T02:47:00;100764.91;;;1.49;100.00
41800;BME280;27468;47.460;19.034;2023-12-29T02:49:26;100728.88;;;1.26;100.00
41800;BME280;27468;47.460;19.034;2023-12-29T02:51:52;100728.13;;;1.30;100.00
41800;BME280;27468;47.460;19.034;2023-12-29T02:54:17;100757.84;;;1.43;100.00
41800;BME280;27468;47.460;19.034;2023-12-29T02:56:42;100716.00;;;1.31;100.00
41800;BME280;27468;47.460;19.034;2023-12-29T02:59:08;100764.97;;;1.52;100.00
41800;BME280;27468;47.460;19.034;2023-12-29T03:01:33;100766.09;;;1.63;100.00
41800;BME280;27468;47.460;19.034;2023-12-29T03:04:00;100781.06;;;1.75;100.00
41800;BME280;27468;47.460;19.034;2023-12-29T03:06:26;100699.66;;;1.35;100.00
41800;BME280;27468;47.460;19.034;2023-12-29T03:08:51;100676.06;;;1.26;100.00
41800;BME280;27468;47.460;19.034;2023-12-29T03:11:17;100734.03;;;1.62;100.00
41800;BME280;27468;47.460;19.034;2023-12-29T03:13:42;100699.03;;;1.47;100.00
41800;BME280;27468;47.460;19.034;2023-12-29T03:16:07;100751.72;;;1.80;100.00
41800;BME280;27468;47.460;19.034;2023-12-29T03:18:33;100701.81;;;1.54;100.00
41800;BME280;27468;47.460;19.034;2023-12-29T03:20:58;100742.06;;;1.73;100.00
41800;BME280;27468;47.460;19.034;2023-12-29T03:23:23;100755.94;;;1.75;100.00
41800;BME280;27468;47.460;19.034;2023-12-29T03:25:49;100755.97;;;1.77;100.00
41800;BME280;27468;47.460;19.034;2023-12-29T03:28:14;100687.56;;;1.37;100.00
41800;BME280;27468;47.460;19.034;2023-12-29T03:30:39;100718.31;;;1.56;100.00
41800;BME280;27468;47.460;19.034;2023-12-29T03:33:04;100663.84;;;1.22;100.00
41800;BME280;27468;47.460;19.034;2023-12-29T03:35:30;100698.03;;;1.40;100.00
41800;BME280;27468;47.460;19.034;2023-12-29T03:37:55;100783.09;;;1.88;100.00
41800;BME280;27468;47.460;19.034;2023-12-29T03:40:20;100702.50;;;1.46;100.00
41800;BME280;27468;47.460;19.034;2023-12-29T03:42:46;100671.91;;;1.34;100.00
41800;BME280;27468;47.460;19.034;2023-12-29T03:45:11;100729.91;;;1.71;100.00
41800;BME280;27468;47.460;19.034;2023-12-29T03:47:36;100675.66;;;1.47;100.00
41800;BME280;27468;47.460;19.034;2023-12-29T03:50:02;100695.84;;;1.58;100.00
41800;BME280;27468;47.460;19.034;2023-12-29T03:52:28;100757.03;;;1.85;100.00
41800;BME280;27468;47.460;19.034;2023-12-29T03:54:53;100697.41;;;1.50;100.00
41800;BME280;27468;47.460;19.034;2023-12-29T03:57:19;100743.63;;;1.65;100.00
41800;BME280;27468;47.460;19.034;2023-12-29T03:59:44;100764.56;;;1.71;100.00
41800;BME280;27468;47.460;19.034;2023-12-29T04:02:09;100785.41;;;1.76;100.00
41800;BME280;27468;47.460;19.034;2023-12-29T04:04:38;100730.97;;;1.41;100.00
41800;BME280;27468;47.460;19.034;2023-12-29T04:07:04;100744.13;;;1.49;100.00
41800;BME280;27468;47.460;19.034;2023-12-29T04:09:30;100725.66;;;1.37;100.00
41800;BME280;27468;47.460;19.034;2023-12-29T04:11:55;100702.81;;;1.22;100.00
41800;BME280;27468;47.460;19.034;2023-12-29T04:14:20;100759.78;;;1.52;100.00
41800;BME280;27468;47.460;19.034;2023-12-29T04:16:46;100727.34;;;1.35;100.00
41800;BME280;27468;47.460;19.034;2023-12-29T04:19:11;100766.75;;;1.53;100.00
41800;BME280;27468;47.460;19.034;2023-12-29T04:21:36;100747.31;;;1.37;100.00
41800;BME280;27468;47.460;19.034;2023-12-29T04:24:02;100749.81;;;1.32;100.00
41800;BME280;27468;47.460;19.034;2023-12-29T04:26:27;100767.19;;;1.35;100.00
41800;BME280;27468;47.460;19.034;2023-12-29T04:28:52;100706.66;;;1.00;100.00
41800;BME280;27468;47.460;19.034;2023-12-29T04:31:18;100808.31;;;1.53;100.00
41800;BME280;27468;47.460;19.034;2023-12-29T04:33:43;100737.31;;;1.16;100.00
41800;BME280;27468;47.460;19.034;2023-12-29T04:36:08;100759.34;;;1.33;100.00
41800;BME280;27468;47.460;19.034;2023-12-29T04:38:34;100683.75;;;0.84;100.00
41800;BME280;27468;47.460;19.034;2023-12-29T04:40:59;100710.13;;;1.01;100.00
41800;BME280;27468;47.460;19.034;2023-12-29T04:43:24;100719.75;;;1.05;100.00
41800;BME280;27468;47.460;19.034;2023-12-29T04:45:50;100790.91;;;1.49;100.00
41800;BME280;27468;47.460;19.034;2023-12-29T04:48:15;100789.97;;;1.47;100.00
41800;BME280;27468;47.460;19.034;2023-12-29T04:50:40;100776.84;;;1.41;100.00
41800;BME280;27468;47.460;19.034;2023-12-29T04:53:05;100722.47;;;1.11;100.00
41800;BME280;27468;47.460;19.034;2023-12-29T04:55:31;100698.63;;;0.91;100.00
41800;BME280;27468;47.460;19.034;2023-12-29T04:57:56;100640.75;;;0.59;100.00
41800;BME280;27468;47.460;19.034;2023-12-29T05:00:21;100727.81;;;1.18;100.00
41800;BME280;27468;47.460;19.034;2023-12-29T05:02:47;100698.81;;;0.98;100.00
41800;BME280;27468;47.460;19.034;2023-12-29T05:05:12;100718.25;;;1.16;100.00
41800;BME280;27468;47.460;19.034;2023-12-29T05:07:38;100763.84;;;1.41;100.00
41800;BME280;27468;47.460;19.034;2023-12-29T05:10:03;100797.19;;;1.58;100.00
41800;BME280;27468;47.460;19.034;2023-12-29T05:12:28;100785.06;;;1.59;100.00
41800;BME280;27468;47.460;19.034;2023-12-29T05:14:55;100778.78;;;1.49;100.00
41800;BME280;27468;47.460;19.034;2023-12-29T05:17:20;100691.16;;;1.03;100.00
41800;BME280;27468;47.460;19.034;2023-12-29T05:19:46;100727.97;;;1.24;100.00
41800;BME280;27468;47.460;19.034;2023-12-29T05:22:11;100719.34;;;1.25;100.00
41800;BME280;27468;47.460;19.034;2023-12-29T05:24:40;100711.59;;;1.27;100.00
41800;BME280;27468;47.460;19.034;2023-12-29T05:27:05;100724.63;;;1.30;100.00
41800;BME280;27468;47.460;19.034;2023-12-29T05:29:31;100719.44;;;1.30;100.00
41800;BME280;27468;47.460;19.034;2023-12-29T05:31:56;100758.13;;;1.55;100.00
41800;BME280;27468;47.460;19.034;2023-12-29T05:34:21;100717.00;;;1.36;100.00
41800;BME280;27468;47.460;19.034;2023-12-29T05:36:47;100710.97;;;1.39;100.00
41800;BME280;27468;47.460;19.034;2023-12-29T05:39:12;100731.94;;;1.46;100.00
41800;BME280;27468;47.460;19.034;2023-12-29T05:41:37;100767.78;;;1.61;100.00
41800;BME280;27468;47.460;19.034;2023-12-29T05:44:03;100685.38;;;1.15;100.00
41800;BME280;27468;47.460;19.034;2023-12-29T05:46:28;100694.94;;;1.19;100.00
41800;BME280;27468;47.460;19.034;2023-12-29T05:48:53;100810.78;;;1.86;100.00
41800;BME280;27468;47.460;19.034;2023-12-29T05:51:19;100808.19;;;1.86;100.00
41800;BME280;27468;47.460;19.034;2023-12-29T05:53:44;100723.03;;;1.35;100.00
41800;BME280;27468;47.460;19.034;2023-12-29T05:56:12;100804.88;;;1.93;100.00
41800;BME280;27468;47.460;19.034;2023-12-29T05:58:38;100750.19;;;1.49;100.00
41800;BME280;27468;47.460;19.034;2023-12-29T06:01:05;100759.81;;;1.53;100.00
41800;BME280;27468;47.460;19.034;2023-12-29T06:03:30;100782.47;;;1.59;100.00
41800;BME280;27468;47.460;19.034;2023-12-29T06:05:56;100796.72;;;1.78;100.00
41800;BME280;27468;47.460;19.034;2023-12-29T06:08:21;100748.44;;;1.48;100.00
41800;BME280;27468;47.460;19.034;2023-12-29T06:10:46;100705.63;;;1.31;100.00
41800;BME280;27468;47.460;19.034;2023-12-29T06:13:12;100811.94;;;1.98;100.00
41800;BME280;27468;47.460;19.034;2023-12-29T06:15:37;100779.34;;;1.75;100.00
41800;BME280;27468;47.460;19.034;2023-12-29T06:18:03;100791.63;;;1.82;100.00
41800;BME280;27468;47.460;19.034;2023-12-29T06:20:29;100719.63;;;1.38;100.00
41800;BME280;27468;47.460;19.034;2023-12-29T06:22:55;100832.72;;;1.98;100.00
41800;BME280;27468;47.460;19.034;2023-12-29T06:25:21;100742.31;;;1.45;100.00
41800;BME280;27468;47.460;19.034;2023-12-29T06:27:46;100765.28;;;1.65;100.00
41800;BME280;27468;47.460;19.034;2023-12-29T06:30:12;100714.53;;;1.42;100.00
41800;BME280;27468;47.460;19.034;2023-12-29T06:32:37;100771.47;;;1.71;100.00
41800;BME280;27468;47.460;19.034;2023-12-29T06:35:04;100813.75;;;2.03;100.00
41800;BME280;27468;47.460;19.034;2023-12-29T06:37:29;100775.00;;;1.74;100.00
41800;BME280;27468;47.460;19.034;2023-12-29T06:39:54;100720.56;;;1.41;100.00
41800;BME280;27468;47.460;19.034;2023-12-29T06:42:20;100828.38;;;1.97;100.00
41800;BME280;27468;47.460;19.034;2023-12-29T06:44:46;100749.16;;;1.41;100.00
41800;BME280;27468;47.460;19.034;2023-12-29T06:47:11;100792.28;;;1.71;100.00
41800;BME280;27468;47.460;19.034;2023-12-29T06:49:36;100773.00;;;1.61;100.00
41800;BME280;27468;47.460;19.034;2023-12-29T06:52:02;100772.84;;;1.55;100.00
41800;BME280;27468;47.460;19.034;2023-12-29T06:54:27;100790.19;;;1.56;100.00
41800;BME280;27468;47.460;19.034;2023-12-29T06:56:53;100799.78;;;1.58;100.00
41800;BME280;27468;47.460;19.034;2023-12-29T06:59:18;100817.28;;;1.65;100.00
41800;BME280;27468;47.460;19.034;2023-12-29T07:01:45;100805.91;;;1.60;100.00
41800;BME280;27468;47.460;19.034;2023-12-29T07:04:11;100785.69;;;1.49;100.00
41800;BME280;27468;47.460;19.034;2023-12-29T07:06:36;100781.34;;;1.48;100.00
41800;BME280;27468;47.460;19.034;2023-12-29T07:09:02;100780.44;;;1.46;100.00
41800;BME280;27468;47.460;19.034;2023-12-29T07:11:28;100804.13;;;1.59;100.00
41800;BME280;27468;47.460;19.034;2023-12-29T07:13:53;100774.16;;;1.38;100.00
41800;BME280;27468;47.460;19.034;2023-12-29T07:16:19;100802.31;;;1.55;100.00
41800;BME280;27468;47.460;19.034;2023-12-29T07:18:45;100741.19;;;1.33;100.00
41800;BME280;27468;47.460;19.034;2023-12-29T07:21:11;100728.91;;;1.28;100.00
41800;BME280;27468;47.460;19.034;2023-12-29T07:23:37;100725.22;;;1.18;100.00
41800;BME280;27468;47.460;19.034;2023-12-29T07:26:03;100759.31;;;1.32;100.00
41800;BME280;27468;47.460;19.034;2023-12-29T07:28:28;100750.56;;;1.28;100.00
41800;BME280;27468;47.460;19.034;2023-12-29T07:30:53;100803.16;;;1.54;100.00
41800;BME280;27468;47.460;19.034;2023-12-29T07:33:19;100795.34;;;1.54;100.00
41800;BME280;27468;47.460;19.034;2023-12-29T07:35:44;100755.84;;;1.31;100.00
41800;BME280;27468;47.460;19.034;2023-12-29T07:38:09;100762.06;;;1.38;100.00
41800;BME280;27468;47.460;19.034;2023-12-29T07:40:35;100791.06;;;1.56;100.00
41800;BME280;27468;47.460;19.034;2023-12-29T07:43:00;100839.19;;;1.78;100.00
41800;BME280;27468;47.460;19.034;2023-12-29T07:45:25;100826.09;;;1.72;100.00
41800;BME280;27468;47.460;19.034;2023-12-29T07:47:51;100736.53;;;1.20;100.00
41800;BME280;27468;47.460;19.034;2023-12-29T07:50:16;100804.94;;;1.57;100.00
41800;BME280;27468;47.460;19.034;2023-12-29T07:52:44;100802.38;;;1.58;100.00
41800;BME280;27468;47.460;19.034;2023-12-29T07:55:10;100772.56;;;1.43;100.00
41800;BME280;27468;47.460;19.034;2023-12-29T07:57:35;100797.06;;;1.54;100.00
41800;BME280;27468;47.460;19.034;2023-12-29T08:00:01;100742.91;;;1.33;100.00
41800;BME280;27468;47.460;19.034;2023-12-29T08:02:26;100832.41;;;1.85;100.00
41800;BME280;27468;47.460;19.034;2023-12-29T08:04:52;100814.94;;;1.78;100.00
41800;BME280;27468;47.460;19.034;2023-12-29T08:07:19;100834.50;;;1.99;100.00
41800;BME280;27468;47.460;19.034;2023-12-29T08:09:45;100766.84;;;1.57;100.00
41800;BME280;27468;47.460;19.034;2023-12-29T08:12:10;100820.63;;;1.99;100.00
41800;BME280;27468;47.460;19.034;2023-12-29T08:14:35;100840.88;;;2.14;100.00
41800;BME280;27468;47.460;19.034;2023-12-29T08:17:01;100840.97;;;2.18;100.00
41800;BME280;27468;47.460;19.034;2023-12-29T08:19:26;100835.03;;;2.24;100.00
41800;BME280;27468;47.460;19.034;2023-12-29T08:21:52;100841.91;;;2.22;100.00
41800;BME280;27468;47.460;19.034;2023-12-29T08:24:18;100763.03;;;1.82;100.00
41800;BME280;27468;47.460;19.034;2023-12-29T08:26:46;100836.81;;;2.26;100.00
41800;BME280;27468;47.460;19.034;2023-12-29T08:29:13;100749.00;;;1.73;100.00
41800;BME280;27468;47.460;19.034;2023-12-29T08:31:38;100729.94;;;1.72;100.00
41800;BME280;27468;47.460;19.034;2023-12-29T08:34:04;100760.53;;;1.87;100.00
41800;BME280;27468;47.460;19.034;2023-12-29T08:36:29;100784.31;;;2.04;100.00
41800;BME280;27468;47.460;19.034;2023-12-29T08:38:54;100847.31;;;2.32;100.00
41800;BME280;27468;47.460;19.034;2023-12-29T08:41:21;100826.19;;;2.16;100.00
41800;BME280;27468;47.460;19.034;2023-12-29T08:43:46;100852.56;;;2.34;100.00
41800;BME280;27468;47.460;19.034;2023-12-29T08:46:12;100795.44;;;1.98;100.00
41800;BME280;27468;47.460;19.034;2023-12-29T08:48:37;100801.44;;;1.94;100.00
41800;BME280;27468;47.460;19.034;2023-12-29T08:51:02;100786.56;;;1.88;100.00
41800;BME280;27468;47.460;19.034;2023-12-29T08:53:28;100821.75;;;2.12;100.00
41800;BME280;27468;47.460;19.034;2023-12-29T08:55:56;100782.56;;;2.03;100.00
41800;BME280;27468;47.460;19.034;2023-12-29T08:58:21;100744.97;;;1.88;100.00
41800;BME280;27468;47.460;19.034;2023-12-29T09:00:46;100802.84;;;2.19;100.00
41800;BME280;27468;47.460;19.034;2023-12-29T09:03:12;100780.28;;;2.18;100.00
41800;BME280;27468;47.460;19.034;2023-12-29T09:05:37;100765.41;;;2.12;100.00
41800;BME280;27468;47.460;19.034;2023-12-29T09:08:03;100823.53;;;2.56;100.00
41800;BME280;27468;47.460;19.034;2023-12-29T09:10:28;100851.50;;;2.67;100.00
41800;BME280;27468;47.460;19.034;2023-12-29T09:12:53;100822.59;;;2.53;100.00
41800;BME280;27468;47.460;19.034;2023-12-29T09:15:20;100844.75;;;2.76;100.00
41800;BME280;27468;47.460;19.034;2023-12-29T09:17:45;100765.09;;;2.41;100.00
41800;BME280;27468;47.460;19.034;2023-12-29T09:20:11;100842.22;;;2.81;100.00
41800;BME280;27468;47.460;19.034;2023-12-29T09:22:36;100728.41;;;2.25;100.00
41800;BME280;27468;47.460;19.034;2023-12-29T09:25:01;100716.34;;;2.32;100.00
41800;BME280;27468;47.460;19.034;2023-12-29T09:27:27;100767.25;;;2.63;100.00
41800;BME280;27468;47.460;19.034;2023-12-29T09:29:52;100709.56;;;2.40;100.00
41800;BME280;27468;47.460;19.034;2023-12-29T09:32:17;100797.31;;;2.95;100.00
41800;BME280;27468;47.460;19.034;2023-12-29T09:34:43;100749.19;;;2.71;100.00
41800;BME280;27468;47.460;19.034;2023-12-29T09:37:09;100750.97;;;2.73;100.00
41800;BME280;27468;47.460;19.034;2023-12-29T09:39:34;100815.72;;;3.05;100.00
41800;BME280;27468;47.460;19.034;2023-12-29T09:41:59;100835.97;;;3.19;100.00
41800;BME280;27468;47.460;19.034;2023-12-29T09:44:27;100792.31;;;3.06;100.00
41800;BME280;27468;47.460;19.034;2023-12-29T09:46:54;100783.75;;;3.13;100.00
41800;BME280;27468;47.460;19.034;2023-12-29T09:49:20;100761.09;;;3.09;100.00
41800;BME280;27468;47.460;19.034;2023-12-29T09:51:46;100784.09;;;3.33;100.00
41800;BME280;27468;47.460;19.034;2023-12-29T09:54:12;100815.72;;;3.57;100.00
41800;BME280;27468;47.460;19.034;2023-12-29T09:56:38;100787.66;;;3.40;100.00
41800;BME280;27468;47.460;19.034;2023-12-29T09:59:04;100807.09;;;3.61;100.00
41800;BME280;27468;47.460;19.034;2023-12-29T10:01:29;100745.78;;;3.27;100.00
41800;BME280;27468;47.460;19.034;2023-12-29T10:03:57;100777.41;;;3.53;100.00
41800;BME280;27468;47.460;19.034;2023-12-29T10:06:24;100736.44;;;3.42;100.00
41800;BME280;27468;47.460;19.034;2023-12-29T10:08:50;100769.88;;;3.72;100.00
41800;BME280;27468;47.460;19.034;2023-12-29T10:11:18;100703.34;;;3.36;100.00
41800;BME280;27468;47.460;19.034;2023-12-29T10:13:46;100779.66;;;3.86;100.00
41800;BME280;27468;47.460;19.034;2023-12-29T10:16:34;100741.06;;;3.62;100.00
41800;BME280;27468;47.460;19.034;2023-12-29T10:22:24;100749.19;;;3.84;100.00
41800;BME280;27468;47.460;19.034;2023-12-29T10:24:29;100758.94;;;3.97;100.00
41800;BME280;27468;47.460;19.034;2023-12-29T10:26:54;100747.66;;;4.01;100.00
41800;BME280;27468;47.460;19.034;2023-12-29T10:29:20;100766.13;;;4.18;100.00
41800;BME280;27468;47.460;19.034;2023-12-29T10:31:46;100761.72;;;4.15;100.00
41800;BME280;27468;47.460;19.034;2023-12-29T10:37:00;100732.13;;;4.12;100.00
41800;BME280;27468;47.460;19.034;2023-12-29T10:39:35;100772.53;;;4.44;100.00
41800;BME280;27468;47.460;19.034;2023-12-29T10:42:05;100738.53;;;4.38;100.00
41800;BME280;27468;47.460;19.034;2023-12-29T10:44:35;100758.75;;;4.57;100.00
41800;BME280;27468;47.460;19.034;2023-12-29T10:47:10;100749.13;;;4.52;100.00
41800;BME280;27468;47.460;19.034;2023-12-29T10:49:36;100747.47;;;4.60;100.00
41800;BME280;27468;47.460;19.034;2023-12-29T10:52:15;100730.91;;;4.58;100.00
41800;BME280;27468;47.460;19.034;2023-12-29T10:54:44;100743.22;;;4.74;100.00
41800;BME280;27468;47.460;19.034;2023-12-29T10:57:11;100712.69;;;4.67;100.00
41800;BME280;27468;47.460;19.034;2023-12-29T10:59:37;100693.50;;;4.59;100.00
41800;BME280;27468;47.460;19.034;2023-12-29T11:02:03;100670.81;;;4.55;100.00
41800;BME280;27468;47.460;19.034;2023-12-29T11:04:29;100696.22;;;4.76;100.00
41800;BME280;27468;47.460;19.034;2023-12-29T11:06:54;100707.69;;;4.93;100.00
41800;BME280;27468;47.460;19.034;2023-12-29T11:09:31;100699.00;;;4.95;100.00
41800;BME280;27468;47.460;19.034;2023-12-29T11:11:59;100699.09;;;5.08;100.00
41800;BME280;27468;47.460;19.034;2023-12-29T11:14:25;100650.19;;;4.90;100.00
41800;BME280;27468;47.460;19.034;2023-12-29T11:16:52;100698.38;;;5.30;100.00
41800;BME280;27468;47.460;19.034;2023-12-29T11:19:18;100694.03;;;5.30;100.00
41800;BME280;27468;47.460;19.034;2023-12-29T11:21:44;100693.22;;;5.39;100.00
41800;BME280;27468;47.460;19.034;2023-12-29T11:24:10;100686.25;;;5.43;100.00
41800;BME280;27468;47.460;19.034;2023-12-29T11:26:36;100641.72;;;5.26;100.00
41800;BME280;27468;47.460;19.034;2023-12-29T11:29:02;100709.94;;;5.69;100.00
41800;BME280;27468;47.460;19.034;2023-12-29T11:31:30;100707.38;;;5.75;100.00
41800;BME280;27468;47.460;19.034;2023-12-29T11:34:05;100697.75;;;5.72;100.00
41800;BME280;27468;47.460;19.034;2023-12-29T11:36:34;100651.50;;;5.60;100.00
41800;BME280;27468;47.460;19.034;2023-12-29T11:41:45;100684.78;;;5.93;100.00
41800;BME280;27468;47.460;19.034;2023-12-29T11:44:12;100614.88;;;5.60;100.00
41800;BME280;27468;47.460;19.034;2023-12-29T11:46:43;100679.59;;;6.03;100.00
41800;BME280;27468;47.460;19.034;2023-12-29T11:49:09;100670.84;;;6.02;100.00
41800;BME280;27468;47.460;19.034;2023-12-29T11:51:36;100686.59;;;6.13;100.00
41800;BME280;27468;47.460;19.034;2023-12-29T11:54:04;100678.75;;;6.13;100.00
41800;BME280;27468;47.460;19.034;2023-12-29T11:56:34;100658.69;;;6.16;100.00
41800;BME280;27468;47.460;19.034;2023-12-29T11:59:13;100657.81;;;6.20;100.00
41800;BME280;27468;47.460;19.034;2023-12-29T12:01:39;100632.50;;;6.10;100.00
41800;BME280;27468;47.460;19.034;2023-12-29T12:04:04;100656.97;;;6.31;100.00
41800;BME280;27468;47.460;19.034;2023-12-29T12:06:39;100608.03;;;6.02;100.00
41800;BME280;27468;47.460;19.034;2023-12-29T12:09:16;100659.59;;;6.31;100.00
41800;BME280;27468;47.460;19.034;2023-12-29T12:11:41;100631.66;;;6.22;100.00
41800;BME280;27468;47.460;19.034;2023-12-29T12:14:07;100621.19;;;6.23;100.00
41800;BME280;27468;47.460;19.034;2023-12-29T12:19:13;100647.38;;;6.46;100.00
41800;BME280;27468;47.460;19.034;2023-12-29T12:21:40;100594.13;;;6.21;100.00
41800;BME280;27468;47.460;19.034;2023-12-29T12:24:05;100642.16;;;6.52;100.00
41800;BME280;27468;47.460;19.034;2023-12-29T12:26:32;100644.78;;;6.55;100.00
41800;BME280;27468;47.460;19.034;2023-12-29T12:28:58;100632.53;;;6.59;100.00
41800;BME280;27468;47.460;19.034;2023-12-29T12:31:23;100634.28;;;6.66;100.00
41800;BME280;27468;47.460;19.034;2023-12-29T12:33:58;100626.44;;;6.69;100.00
41800;BME280;27468;47.460;19.034;2023-12-29T12:36:27;100640.41;;;6.85;100.00
41800;BME280;27468;47.460;19.034;2023-12-29T12:38:54;100589.75;;;6.69;100.00
41800;BME280;27468;47.460;19.034;2023-12-29T12:41:21;100634.25;;;7.09;100.00
41800;BME280;27468;47.460;19.034;2023-12-29T12:46:22;100630.72;;;7.28;100.00
41800;BME280;27468;47.460;19.034;2023-12-29T12:48:52;100627.19;;;7.44;100.00
41800;BME280;27468;47.460;19.034;2023-12-29T12:51:19;100607.97;;;7.38;100.00
41800;BME280;27468;47.460;19.034;2023-12-29T12:53:45;100629.75;;;7.53;100.00